createdAt,value
2023-04-04T00:00:33.618Z,1.93
2023-04-04T00:03:01.570Z,2.33
2023-04-04T00:05:29.665Z,1.70
2023-04-04T00:07:57.603Z,1.80
2023-04-04T00:10:27.242Z,2.00
2023-04-04T00:12:55.698Z,1.50
2023-04-04T00:15:23.572Z,2.30
2023-04-04T00:17:51.920Z,1.90
2023-04-04T00:20:19.886Z,2.00
2023-04-04T00:22:47.762Z,2.07
2023-04-04T00:25:15.780Z,2.57
2023-04-04T00:27:45.095Z,2.50
2023-04-04T00:30:13.993Z,2.13
2023-04-04T00:32:42.108Z,2.10
2023-04-04T00:35:10.441Z,2.37
2023-04-04T00:37:38.921Z,1.90
2023-04-04T00:40:08.648Z,2.17
2023-04-04T00:42:37.384Z,2.07
2023-04-04T00:45:09.109Z,2.13
2023-04-04T00:47:38.969Z,2.50
2023-04-04T00:50:08.590Z,2.00
2023-04-04T00:52:38.140Z,2.33
2023-04-04T00:55:06.995Z,1.90
2023-04-04T00:57:35.860Z,2.00
2023-04-04T01:00:07.867Z,1.47
2023-04-04T01:02:36.951Z,2.13
2023-04-04T01:05:05.359Z,2.23
2023-04-04T01:07:34.294Z,2.10
2023-04-04T01:10:04.121Z,1.93
2023-04-04T01:12:32.837Z,2.67
2023-04-04T01:15:00.908Z,2.20
2023-04-04T01:17:30.956Z,2.53
2023-04-04T01:20:05.162Z,2.10
2023-04-04T01:22:33.464Z,1.97
2023-04-04T01:25:03.057Z,2.10
2023-04-04T01:27:32.585Z,1.77
2023-04-04T01:30:01.186Z,2.27
2023-04-04T01:32:34.634Z,1.77
2023-04-04T01:35:14.698Z,2.20
2023-04-04T01:37:50.582Z,2.20
2023-04-04T01:40:22.298Z,2.17
2023-04-04T01:42:52.847Z,2.23
2023-04-04T01:45:24.376Z,2.43
2023-04-04T01:47:52.370Z,2.47
2023-04-04T01:50:20.570Z,3.37
2023-04-04T01:52:48.458Z,4.33
2023-04-04T01:55:16.701Z,3.50
2023-04-04T01:57:44.723Z,3.47
2023-04-04T02:00:15.729Z,3.67
2023-04-04T02:02:43.694Z,3.10
2023-04-04T02:05:11.994Z,3.63
2023-04-04T02:07:39.928Z,3.80
2023-04-04T02:10:08.730Z,3.93
2023-04-04T02:12:36.596Z,4.10
2023-04-04T02:15:05.184Z,4.13
2023-04-04T02:17:35.725Z,4.23
2023-04-04T02:20:04.456Z,4.13
2023-04-04T02:22:32.310Z,4.17
2023-04-04T02:25:02.751Z,3.70
2023-04-04T02:27:30.911Z,2.97
2023-04-04T02:29:58.755Z,3.40
2023-04-04T02:32:27.429Z,3.80
2023-04-04T02:34:57.019Z,4.10
2023-04-04T02:37:24.910Z,4.50
2023-04-04T02:39:52.808Z,4.20
2023-04-04T02:42:20.631Z,4.47
2023-04-04T02:44:48.486Z,4.23
2023-04-04T02:47:16.918Z,4.30
2023-04-04T02:49:44.802Z,4.37
2023-04-04T02:52:14.047Z,3.63
2023-04-04T02:54:41.898Z,3.30
2023-04-04T02:57:09.767Z,3.70
2023-04-04T02:59:37.841Z,3.60
2023-04-04T03:02:05.781Z,3.63
2023-04-04T03:04:33.671Z,3.30
2023-04-04T03:07:01.492Z,2.90
2023-04-04T03:09:30.771Z,3.00
2023-04-04T03:11:58.765Z,3.70
2023-04-04T03:14:26.784Z,3.77
2023-04-04T03:16:54.847Z,4.30
2023-04-04T03:19:22.774Z,3.80
2023-04-04T03:21:50.690Z,4.00
2023-04-04T03:24:18.824Z,3.90
2023-04-04T03:26:48.248Z,4.10
2023-04-04T03:29:16.478Z,3.50
2023-04-04T03:31:44.353Z,3.13
2023-04-04T03:34:12.617Z,3.20
2023-04-04T03:36:40.437Z,2.80
2023-04-04T03:39:08.249Z,2.90
2023-04-04T03:41:36.601Z,3.00
2023-04-04T03:44:06.686Z,2.67
2023-04-04T03:46:35.892Z,2.90
2023-04-04T03:49:03.977Z,3.20
2023-04-04T03:51:31.798Z,2.87
2023-04-04T03:53:59.665Z,2.93
2023-04-04T03:56:27.588Z,3.00
2023-04-04T03:58:56.773Z,2.90
2023-04-04T04:01:26.085Z,3.63
2023-04-04T04:03:54.110Z,3.93
2023-04-04T04:06:22.174Z,4.70
2023-04-04T04:08:50.176Z,5.00
2023-04-04T04:11:18.043Z,4.90
2023-04-04T04:13:46.128Z,4.00
2023-04-04T04:16:14.057Z,4.73
2023-04-04T04:18:43.383Z,3.80
2023-04-04T04:21:11.267Z,3.30
2023-04-04T04:23:39.145Z,3.10
2023-04-04T04:26:07.798Z,3.10
2023-04-04T04:28:35.643Z,3.10
2023-04-04T04:31:07.630Z,3.03
2023-04-04T04:33:35.923Z,3.40
2023-04-04T04:36:07.330Z,2.90
2023-04-04T04:38:35.269Z,3.53
2023-04-04T04:41:03.173Z,3.50
2023-04-04T04:43:31.255Z,3.93
2023-04-04T04:45:59.273Z,4.10
2023-04-04T04:48:27.090Z,3.70
2023-04-04T04:50:55.062Z,4.00
2023-04-04T04:53:24.274Z,4.37
2023-04-04T04:55:52.609Z,4.90
2023-04-04T04:58:22.634Z,7.73
2023-04-04T05:00:50.775Z,5.50
2023-04-04T05:03:18.768Z,5.23
2023-04-04T05:05:46.910Z,4.93
2023-04-04T05:08:15.754Z,4.70
2023-04-04T05:10:45.023Z,4.70
2023-04-04T05:13:14.005Z,5.53
2023-04-04T05:15:42.125Z,6.50
2023-04-04T05:18:09.961Z,8.80
2023-04-04T05:20:38.128Z,7.77
2023-04-04T05:23:06.311Z,7.03
2023-04-04T05:25:34.182Z,6.57
2023-04-04T05:28:03.980Z,7.10
2023-04-04T05:30:32.370Z,6.30
2023-04-04T05:33:00.364Z,4.63
2023-04-04T05:35:28.272Z,3.50
2023-04-04T05:37:57.112Z,3.37
2023-04-04T05:40:25.010Z,3.47
2023-04-04T05:42:56.784Z,3.67
2023-04-04T05:45:26.374Z,3.53
2023-04-04T05:47:54.209Z,3.73
2023-04-04T05:50:22.099Z,3.60
2023-04-04T05:52:50.011Z,3.87
2023-04-04T05:55:18.170Z,4.23
2023-04-04T05:57:50.239Z,4.23
2023-04-04T06:00:19.494Z,4.30
2023-04-04T06:02:48.775Z,4.13
2023-04-04T06:05:17.009Z,3.57
2023-04-04T06:07:44.987Z,3.67
2023-04-04T06:10:12.817Z,3.47
2023-04-04T06:12:41.078Z,3.87
2023-04-04T06:15:09.825Z,4.20
2023-04-04T06:17:37.828Z,4.30
2023-04-04T06:20:08.725Z,4.67
2023-04-04T06:22:36.821Z,5.63
2023-04-04T06:25:05.062Z,5.37
2023-04-04T06:27:32.919Z,3.70
2023-04-04T06:30:00.968Z,3.33
2023-04-04T06:32:29.184Z,3.17
2023-04-04T06:34:58.765Z,3.07
2023-04-04T06:37:28.073Z,3.67
2023-04-04T06:39:55.960Z,3.33
2023-04-04T06:42:23.867Z,3.80
2023-04-04T06:44:51.796Z,3.80
2023-04-04T06:47:21.020Z,3.80
2023-04-04T06:49:48.933Z,3.60
2023-04-04T06:52:17.621Z,3.53
2023-04-04T06:54:46.948Z,3.63
2023-04-04T06:57:14.784Z,3.37
2023-04-04T06:59:44.923Z,3.27
2023-04-04T07:02:13.117Z,3.30
2023-04-04T07:04:42.043Z,3.63
2023-04-04T07:07:09.878Z,3.30
2023-04-04T07:09:37.782Z,3.60
2023-04-04T07:12:07.196Z,3.83
2023-04-04T07:14:35.030Z,3.40
2023-04-04T07:17:10.681Z,4.00
2023-04-04T07:19:45.214Z,3.20
2023-04-04T07:22:13.284Z,3.00
2023-04-04T07:24:41.966Z,3.10
2023-04-04T07:27:11.322Z,3.33
2023-04-04T07:29:39.170Z,3.10
2023-04-04T07:32:07.413Z,3.00
2023-04-04T07:34:35.341Z,3.23
2023-04-04T07:37:03.685Z,3.03
2023-04-04T07:39:32.025Z,3.13
2023-04-04T07:41:59.898Z,3.43
2023-04-04T07:44:29.149Z,3.00
2023-04-04T07:47:08.478Z,3.00
2023-04-04T07:49:37.643Z,3.27
2023-04-04T07:52:05.681Z,3.67
2023-04-04T07:54:33.509Z,3.13
2023-04-04T07:57:01.455Z,3.33
2023-04-04T07:59:30.718Z,2.83
2023-04-04T08:01:58.635Z,2.80
2023-04-04T08:04:26.513Z,3.00
2023-04-04T08:06:54.409Z,2.80
2023-04-04T08:09:22.254Z,2.97
2023-04-04T08:11:50.089Z,2.60
2023-04-04T08:14:17.966Z,2.53
2023-04-04T08:16:47.346Z,3.20
2023-04-04T08:19:16.608Z,2.93
2023-04-04T08:21:46.764Z,2.90
2023-04-04T08:24:14.650Z,2.93
2023-04-04T08:26:45.147Z,3.43
2023-04-04T08:29:17.112Z,3.60
2023-04-04T08:31:45.041Z,3.33
2023-04-04T08:34:14.299Z,2.87
2023-04-04T08:36:42.345Z,3.50
2023-04-04T08:39:10.158Z,3.33
2023-04-04T08:41:38.302Z,3.23
2023-04-04T08:44:07.663Z,2.90
2023-04-04T08:46:36.157Z,3.80
2023-04-04T08:49:05.142Z,3.63
2023-04-04T08:51:37.142Z,3.10
2023-04-04T08:54:05.817Z,3.10
2023-04-04T08:56:35.914Z,3.43
2023-04-04T08:59:03.956Z,2.57
2023-04-04T09:01:33.288Z,3.20
2023-04-04T09:04:02.072Z,2.77
2023-04-04T09:06:30.951Z,3.00
2023-04-04T09:09:01.475Z,2.80
2023-04-04T09:11:32.620Z,3.03
2023-04-04T09:14:04.410Z,3.13
2023-04-04T09:16:32.704Z,2.53
2023-04-04T09:19:00.849Z,2.47
2023-04-04T09:21:29.315Z,2.70
2023-04-04T09:24:03.050Z,2.47
2023-04-04T09:26:47.489Z,2.50
2023-04-04T09:29:15.600Z,2.70
2023-04-04T09:31:46.716Z,2.70
2023-04-04T09:34:16.640Z,2.77
2023-04-04T09:36:46.642Z,2.90
2023-04-04T09:39:16.765Z,2.43
2023-04-04T09:41:45.970Z,2.70
2023-04-04T09:44:14.518Z,2.67
2023-04-04T09:46:42.431Z,2.80
2023-04-04T09:49:13.313Z,2.30
2023-04-04T09:51:42.674Z,2.40
2023-04-04T09:54:18.694Z,2.60
2023-04-04T09:56:52.847Z,2.50
2023-04-04T09:59:21.109Z,2.80
2023-04-04T10:01:51.341Z,2.67
2023-04-04T10:04:19.924Z,2.33
2023-04-04T10:06:47.895Z,2.30
2023-04-04T10:09:16.865Z,2.37
2023-04-04T10:11:45.499Z,2.50
2023-04-04T10:14:14.790Z,2.17
2023-04-04T10:16:46.607Z,2.63
2023-04-04T10:19:19.137Z,3.10
2023-04-04T10:21:48.970Z,3.07
2023-04-04T10:24:19.142Z,2.30
2023-04-04T10:26:47.101Z,2.57
2023-04-04T10:29:16.469Z,2.70
2023-04-04T10:31:47.357Z,2.37
2023-04-04T10:34:21.979Z,2.80
2023-04-04T10:36:52.655Z,2.40
2023-04-04T10:39:27.229Z,2.77
2023-04-04T10:41:57.456Z,2.70
2023-04-04T10:44:32.559Z,2.83
2023-04-04T10:47:08.806Z,2.70
2023-04-04T10:49:38.480Z,2.50
2023-04-04T10:52:06.837Z,3.63
2023-04-04T10:54:35.371Z,2.50
2023-04-04T10:57:04.139Z,3.23
2023-04-04T10:59:33.554Z,2.80
2023-04-04T11:02:03.175Z,2.70
2023-04-04T11:04:35.192Z,2.63
2023-04-04T11:07:12.987Z,2.40
2023-04-04T11:09:57.278Z,2.40
2023-04-04T11:12:34.142Z,2.67
2023-04-04T11:15:11.520Z,2.23
2023-04-04T11:17:58.483Z,2.60
2023-04-04T11:20:31.266Z,2.57
2023-04-04T11:23:07.485Z,2.67
2023-04-04T11:25:42.975Z,2.10
2023-04-04T11:28:15.844Z,2.67
2023-04-04T11:30:51.532Z,2.57
2023-04-04T11:33:29.226Z,2.40
2023-04-04T11:36:01.866Z,2.20
2023-04-04T11:38:32.772Z,2.47
2023-04-04T11:41:00.862Z,2.60
2023-04-04T11:43:29.904Z,2.77
2023-04-04T11:46:10.968Z,2.40
2023-04-04T11:48:40.514Z,2.40
2023-04-04T11:51:09.367Z,2.57
2023-04-04T11:53:37.336Z,2.90
2023-04-04T11:56:05.284Z,3.10
2023-04-04T11:58:37.424Z,2.77
2023-04-04T12:01:07.081Z,2.80
2023-04-04T12:03:36.380Z,2.50
2023-04-04T12:06:04.565Z,2.33
2023-04-04T12:08:33.690Z,2.93
2023-04-04T12:11:06.610Z,3.13
2023-04-04T12:13:34.694Z,2.90
2023-04-04T12:16:03.785Z,2.50
2023-04-04T12:18:33.275Z,3.53
2023-04-04T12:21:02.108Z,2.70
2023-04-04T12:23:34.385Z,3.00
2023-04-04T12:26:04.040Z,3.00
2023-04-04T12:28:34.204Z,2.80
2023-04-04T12:31:05.761Z,2.70
2023-04-04T12:33:35.743Z,2.90
2023-04-04T12:36:05.455Z,3.10
2023-04-04T12:38:33.998Z,4.13
2023-04-04T12:41:01.911Z,3.33
2023-04-04T12:43:30.515Z,4.10
2023-04-04T12:45:59.541Z,4.87
2023-04-04T12:48:29.680Z,4.37
2023-04-04T12:51:00.569Z,3.70
2023-04-04T12:53:30.453Z,4.17
2023-04-04T12:56:05.629Z,4.03
2023-04-04T12:58:36.123Z,4.13
2023-04-04T13:01:05.757Z,4.03
2023-04-04T13:03:35.028Z,3.60
2023-04-04T13:06:04.483Z,3.03
2023-04-04T13:08:32.795Z,3.70
2023-04-04T13:11:02.870Z,3.60
2023-04-04T13:13:35.465Z,3.20
2023-04-04T13:16:04.465Z,3.87
2023-04-04T13:18:38.460Z,3.87
2023-04-04T13:21:08.568Z,3.40
2023-04-04T13:23:37.834Z,3.47
2023-04-04T13:26:05.970Z,3.10
2023-04-04T13:28:33.958Z,3.27
2023-04-04T13:31:04.087Z,3.40
2023-04-04T13:33:32.123Z,3.37
2023-04-04T13:36:00.590Z,3.10
2023-04-04T13:38:30.415Z,3.10
2023-04-04T13:40:59.858Z,3.60
2023-04-04T13:43:27.985Z,3.70
2023-04-04T13:45:56.472Z,3.40
2023-04-04T13:48:24.529Z,3.20
2023-04-04T13:50:53.210Z,3.53
2023-04-04T13:53:21.427Z,3.60
2023-04-04T13:56:13.717Z,3.37
2023-04-04T13:58:39.233Z,3.87
2023-04-04T14:01:07.392Z,3.60
2023-04-04T14:03:35.345Z,3.67
2023-04-04T14:06:09.817Z,3.33
2023-04-04T14:08:38.901Z,3.37
2023-04-04T14:11:08.353Z,3.23
2023-04-04T14:13:36.417Z,3.43
2023-04-04T14:16:04.737Z,3.17
2023-04-04T14:18:32.685Z,3.33
2023-04-04T14:21:00.789Z,3.63
2023-04-04T14:23:30.647Z,3.83
2023-04-04T14:25:58.500Z,3.50
2023-04-04T14:28:28.184Z,3.10
2023-04-04T14:30:56.301Z,3.60
2023-04-04T14:33:24.197Z,3.33
2023-04-04T14:35:54.687Z,3.50
2023-04-04T14:38:22.524Z,3.70
2023-04-04T14:40:50.365Z,3.77
2023-04-04T14:43:18.202Z,4.40
2023-04-04T14:45:47.649Z,4.27
2023-04-04T14:48:15.534Z,3.67
2023-04-04T14:50:43.364Z,3.70
2023-04-04T14:53:11.200Z,3.60
2023-04-04T14:55:41.983Z,3.30
2023-04-04T14:58:10.179Z,3.07
2023-04-04T15:00:38.190Z,3.70
2023-04-04T15:03:08.429Z,3.43
2023-04-04T15:05:36.656Z,3.80
2023-04-04T15:08:04.681Z,3.60
2023-04-04T15:10:32.518Z,3.90
2023-04-04T15:13:00.627Z,9.83
2023-04-04T15:15:29.352Z,4.67
2023-04-04T15:17:57.363Z,3.70
2023-04-04T15:20:26.756Z,4.17
2023-04-04T15:22:54.624Z,3.90
2023-04-04T15:25:22.571Z,4.03
2023-04-04T15:27:50.526Z,4.07
2023-04-04T15:30:18.424Z,4.07
2023-04-04T15:32:46.408Z,3.93
2023-04-04T15:35:18.317Z,4.23
2023-04-04T15:37:49.103Z,4.00
2023-04-04T15:40:17.605Z,4.77
2023-04-04T15:42:46.082Z,3.80
2023-04-04T15:45:15.245Z,3.63
2023-04-04T15:47:44.997Z,3.60
2023-04-04T15:50:13.320Z,3.90
2023-04-04T15:52:41.207Z,3.80
2023-04-04T15:55:14.506Z,3.53
2023-04-04T15:57:44.592Z,3.87
2023-04-04T16:00:14.603Z,5.37
2023-04-04T16:02:42.632Z,6.10
2023-04-04T16:05:11.071Z,4.17
2023-04-04T16:07:39.020Z,4.33
2023-04-04T16:10:08.037Z,3.60
2023-04-04T16:12:37.310Z,3.60
2023-04-04T16:15:07.001Z,4.80
2023-04-04T16:17:35.164Z,4.00
2023-04-04T16:20:03.256Z,4.00
2023-04-04T16:22:31.098Z,5.63
2023-04-04T16:24:58.966Z,4.80
2023-04-04T16:27:27.137Z,5.00
2023-04-04T16:29:56.972Z,4.50
2023-04-04T16:32:24.908Z,4.17
2023-04-04T16:34:53.155Z,4.47
2023-04-04T16:37:23.314Z,3.80
2023-04-04T16:39:52.047Z,3.60
2023-04-04T16:42:20.311Z,3.80
2023-04-04T16:44:48.266Z,4.50
2023-04-04T16:47:17.527Z,5.47
2023-04-04T16:49:47.184Z,3.90
2023-04-04T16:52:15.318Z,4.30
2023-04-04T16:54:43.298Z,4.97
2023-04-04T16:57:11.352Z,3.70
2023-04-04T16:59:39.267Z,3.73
2023-04-04T17:02:09.045Z,3.80
2023-04-04T17:04:41.645Z,3.90
2023-04-04T17:07:10.309Z,4.47
2023-04-04T17:09:38.465Z,4.90
2023-04-04T17:12:06.947Z,4.37
2023-04-04T17:14:35.677Z,3.60
2023-04-04T17:17:05.361Z,3.40
2023-04-04T17:19:35.339Z,3.50
2023-04-04T17:22:04.688Z,4.50
2023-04-04T17:24:32.551Z,3.60
2023-04-04T17:27:02.428Z,3.40
2023-04-04T17:29:30.885Z,3.80
2023-04-04T17:31:59.797Z,4.13
2023-04-04T17:34:27.844Z,4.30
2023-04-04T17:36:56.766Z,3.90
2023-04-04T17:39:26.165Z,4.53
2023-04-04T17:41:54.287Z,5.60
2023-04-04T17:44:22.974Z,4.83
2023-04-04T17:46:50.890Z,4.30
2023-04-04T17:49:19.945Z,4.43
2023-04-04T17:51:48.633Z,3.80
2023-04-04T17:54:16.934Z,3.80
2023-04-04T17:56:47.086Z,3.03
2023-04-04T17:59:16.668Z,4.00
2023-04-04T18:01:45.188Z,3.93
2023-04-04T18:04:13.235Z,3.70
2023-04-04T18:06:41.933Z,5.30
2023-04-04T18:09:10.438Z,6.03
2023-04-04T18:11:39.681Z,6.13
2023-04-04T18:14:08.900Z,5.50
2023-04-04T18:16:40.276Z,4.77
2023-04-04T18:19:08.948Z,5.00
2023-04-04T18:21:36.807Z,4.90
2023-04-04T18:24:07.359Z,4.80
2023-04-04T18:26:35.359Z,4.50
2023-04-04T18:29:03.276Z,4.83
2023-04-04T18:31:32.745Z,4.20
2023-04-04T18:34:00.990Z,4.03
2023-04-04T18:36:29.022Z,3.70
2023-04-04T18:38:56.948Z,3.90
2023-04-04T18:41:24.964Z,4.23
2023-04-04T18:43:52.901Z,4.17
2023-04-04T18:46:20.804Z,4.33
2023-04-04T18:48:50.196Z,3.60
2023-04-04T18:51:18.072Z,3.60
2023-04-04T18:53:46.510Z,3.97
2023-04-04T18:56:14.499Z,4.97
2023-04-04T18:58:42.899Z,4.50
2023-04-04T19:01:12.883Z,9.17
2023-04-04T19:03:44.294Z,6.27
2023-04-04T19:06:14.890Z,4.87
2023-04-04T19:08:44.079Z,4.90
2023-04-04T19:11:12.261Z,5.30
2023-04-04T19:13:40.226Z,8.13
2023-04-04T19:16:08.307Z,8.70
2023-04-04T19:18:36.237Z,7.80
2023-04-04T19:21:05.594Z,8.80
2023-04-04T19:23:34.908Z,8.93
2023-04-04T19:26:02.853Z,8.80
2023-04-04T19:28:31.055Z,7.37
2023-04-04T19:30:58.952Z,7.30
2023-04-04T19:33:27.532Z,9.03
2023-04-04T19:35:58.976Z,7.90
2023-04-04T19:38:29.313Z,7.70
2023-04-04T19:41:00.625Z,8.13
2023-04-04T19:43:29.815Z,8.17
2023-04-04T19:45:59.594Z,7.60
2023-04-04T19:48:45.077Z,7.93
2023-04-04T19:51:40.987Z,6.93
2023-04-04T19:54:14.888Z,5.23
2023-04-04T19:56:46.647Z,5.87
2023-04-04T20:00:01.693Z,6.13
2023-04-04T20:03:03.287Z,6.40
2023-04-04T20:05:57.745Z,6.87
2023-04-04T20:08:35.668Z,7.10
2023-04-04T20:11:03.650Z,7.50
2023-04-04T20:13:34.741Z,7.07
2023-04-04T20:16:05.087Z,7.70
2023-04-04T20:18:34.572Z,8.07
2023-04-04T20:21:13.450Z,7.97
2023-04-04T20:23:49.491Z,6.80
2023-04-04T20:26:41.539Z,7.33
2023-04-04T20:29:11.762Z,7.37
2023-04-04T20:31:43.021Z,7.97
2023-04-04T20:34:33.015Z,6.97
2023-04-04T20:37:03.103Z,6.33
2023-04-04T20:39:40.584Z,6.40
2023-04-04T20:42:34.191Z,6.50
2023-04-04T20:45:29.740Z,6.27
2023-04-04T20:48:00.530Z,6.50
2023-04-04T20:50:46.398Z,6.47
2023-04-04T20:53:20.621Z,5.60
2023-04-04T20:55:50.667Z,5.47
2023-04-04T20:58:28.325Z,4.60
2023-04-04T21:00:58.535Z,4.97
2023-04-04T21:03:35.895Z,5.20
2023-04-04T21:06:11.337Z,5.30
2023-04-04T21:08:42.725Z,5.13
2023-04-04T21:11:12.256Z,5.10
2023-04-04T21:13:41.451Z,9.87
2023-04-04T21:16:12.424Z,8.70
2023-04-04T21:18:42.096Z,6.90
2023-04-04T21:21:16.882Z,5.90
2023-04-04T21:23:46.867Z,5.83
2023-04-04T21:26:32.839Z,6.57
2023-04-04T21:29:03.373Z,7.27
2023-04-04T21:31:36.919Z,7.77
2023-04-04T21:34:13.642Z,8.07
2023-04-04T21:36:41.901Z,7.87
2023-04-04T21:39:13.891Z,7.47
2023-04-04T21:41:44.005Z,8.17
2023-04-04T21:44:12.277Z,10.13
2023-04-04T21:46:42.771Z,12.23
2023-04-04T21:49:11.349Z,12.10
2023-04-04T21:51:39.596Z,12.00
2023-04-04T21:54:07.560Z,12.03
2023-04-04T21:56:35.458Z,11.30
2023-04-04T21:59:05.116Z,11.20
2023-04-04T22:01:33.224Z,10.77
2023-04-04T22:04:02.811Z,10.43
2023-04-04T22:06:31.260Z,11.20
2023-04-04T22:09:01.848Z,10.47
2023-04-04T22:11:30.478Z,10.27
2023-04-04T22:14:04.632Z,10.30
2023-04-04T22:16:37.020Z,10.00
2023-04-04T22:19:07.566Z,10.13
2023-04-04T22:21:36.572Z,9.33
2023-04-04T22:24:06.215Z,9.13
2023-04-04T22:26:34.587Z,9.33
2023-04-04T22:29:04.587Z,8.77
2023-04-04T22:31:34.573Z,8.30
2023-04-04T22:34:03.191Z,7.33
2023-04-04T22:36:34.476Z,6.47
2023-04-04T22:39:02.965Z,6.33
2023-04-04T22:41:30.899Z,6.20
2023-04-04T22:43:59.049Z,5.80
2023-04-04T22:46:29.432Z,5.73
2023-04-04T22:49:05.765Z,6.20
2023-04-04T22:51:43.076Z,6.33
2023-04-04T22:54:13.074Z,5.77
2023-04-04T22:56:41.781Z,5.90
2023-04-04T22:59:09.799Z,5.60
2023-04-04T23:01:37.781Z,5.57
2023-04-04T23:04:05.945Z,5.63
2023-04-04T23:06:35.856Z,6.00
2023-04-04T23:09:04.128Z,5.73
2023-04-04T23:11:32.097Z,5.30
2023-04-04T23:14:00.418Z,5.00
2023-04-04T23:16:28.865Z,6.13
2023-04-04T23:18:57.165Z,6.40
2023-04-04T23:21:25.187Z,5.40
2023-04-04T23:23:54.406Z,5.77
2023-04-04T23:26:22.252Z,5.20
2023-04-04T23:28:51.084Z,6.03
2023-04-04T23:31:18.925Z,6.27
2023-04-04T23:33:46.830Z,7.17
2023-04-04T23:36:15.749Z,7.83
2023-04-04T23:38:43.645Z,6.70
2023-04-04T23:41:13.409Z,7.17
2023-04-04T23:43:42.846Z,6.43
2023-04-04T23:46:10.745Z,5.93
2023-04-04T23:48:38.643Z,5.93
2023-04-04T23:51:08.527Z,5.60
2023-04-04T23:53:36.613Z,4.90
2023-04-04T23:56:04.562Z,4.27
2023-04-04T23:58:33.774Z,4.90
